sensor_id;sensor_type;location;lat;lon;timestamp;P1;durP1;ratioP1;P2;durP2;ratioP2
70301;SDS011;57706;56.326;43.882;2023-05-07T00:00:00;5.57;;;2.70;;
70301;SDS011;57706;56.326;43.882;2023-05-07T00:02:26;3.92;;;2.20;;
70301;SDS011;57706;56.326;43.882;2023-05-07T00:04:52;7.85;;;2.20;;
70301;SDS011;57706;56.326;43.882;2023-05-07T00:07:18;4.90;;;2.35;;
70301;SDS011;57706;56.326;43.882;2023-05-07T00:09:44;5.05;;;2.28;;
70301;SDS011;57706;56.326;43.882;2023-05-07T00:12:10;6.70;;;2.20;;
70301;SDS011;57706;56.326;43.882;2023-05-07T00:14:36;10.80;;;2.78;;
70301;SDS011;57706;56.326;43.882;2023-05-07T00:17:02;5.65;;;2.60;;
70301;SDS011;57706;56.326;43.882;2023-05-07T00:19:28;3.60;;;2.08;;
70301;SDS011;57706;56.326;43.882;2023-05-07T00:21:53;6.22;;;1.98;;
70301;SDS011;57706;56.326;43.882;2023-05-07T00:24:21;4.18;;;2.40;;
70301;SDS011;57706;56.326;43.882;2023-05-07T00:26:47;6.22;;;2.40;;
70301;SDS011;57706;56.326;43.882;2023-05-07T00:29:12;4.82;;;2.20;;
70301;SDS011;57706;56.326;43.882;2023-05-07T00:31:38;4.30;;;1.90;;
70301;SDS011;57706;56.326;43.882;2023-05-07T00:34:04;7.63;;;2.47;;
70301;SDS011;57706;56.326;43.882;2023-05-07T00:36:31;6.63;;;2.30;;
70301;SDS011;57706;56.326;43.882;2023-05-07T00:38:58;4.82;;;3.03;;
70301;SDS011;57706;56.326;43.882;2023-05-07T00:41:28;3.35;;;2.38;;
70301;SDS011;57706;56.326;43.882;2023-05-07T00:43:53;5.50;;;2.55;;
70301;SDS011;57706;56.326;43.882;2023-05-07T00:46:22;7.32;;;2.40;;
70301;SDS011;57706;56.326;43.882;2023-05-07T00:48:51;3.85;;;2.40;;
70301;SDS011;57706;56.326;43.882;2023-05-07T00:51:19;3.92;;;2.42;;
70301;SDS011;57706;56.326;43.882;2023-05-07T00:53:45;4.80;;;2.03;;
70301;SDS011;57706;56.326;43.882;2023-05-07T00:56:12;5.63;;;2.35;;
70301;SDS011;57706;56.326;43.882;2023-05-07T00:58:38;6.07;;;2.20;;
70301;SDS011;57706;56.326;43.882;2023-05-07T01:01:04;5.13;;;2.10;;
70301;SDS011;57706;56.326;43.882;2023-05-07T01:03:30;3.63;;;2.45;;
70301;SDS011;57706;56.326;43.882;2023-05-07T01:05:56;3.08;;;2.10;;
70301;SDS011;57706;56.326;43.882;2023-05-07T01:08:24;4.20;;;2.28;;
70301;SDS011;57706;56.326;43.882;2023-05-07T01:10:52;3.08;;;2.03;;
70301;SDS011;57706;56.326;43.882;2023-05-07T01:13:19;4.95;;;2.35;;
70301;SDS011;57706;56.326;43.882;2023-05-07T01:15:46;3.92;;;1.85;;
70301;SDS011;57706;56.326;43.882;2023-05-07T01:18:12;5.43;;;2.53;;
70301;SDS011;57706;56.326;43.882;2023-05-07T01:20:38;5.88;;;2.50;;
70301;SDS011;57706;56.326;43.882;2023-05-07T01:23:04;6.78;;;2.78;;
70301;SDS011;57706;56.326;43.882;2023-05-07T01:25:32;5.85;;;2.40;;
70301;SDS011;57706;56.326;43.882;2023-05-07T01:28:00;5.72;;;2.20;;
70301;SDS011;57706;56.326;43.882;2023-05-07T01:30:29;3.63;;;2.30;;
70301;SDS011;57706;56.326;43.882;2023-05-07T01:32:58;4.50;;;2.53;;
70301;SDS011;57706;56.326;43.882;2023-05-07T01:35:32;4.07;;;2.40;;
70301;SDS011;57706;56.326;43.882;2023-05-07T01:38:10;7.60;;;2.45;;
70301;SDS011;57706;56.326;43.882;2023-05-07T01:40:37;4.18;;;2.40;;
70301;SDS011;57706;56.326;43.882;2023-05-07T01:43:03;6.30;;;2.35;;
70301;SDS011;57706;56.326;43.882;2023-05-07T01:45:32;3.92;;;2.17;;
70301;SDS011;57706;56.326;43.882;2023-05-07T01:48:00;3.92;;;2.22;;
70301;SDS011;57706;56.326;43.882;2023-05-07T01:50:27;4.95;;;1.90;;
70301;SDS011;57706;56.326;43.882;2023-05-07T01:52:54;2.97;;;1.85;;
70301;SDS011;57706;56.326;43.882;2023-05-07T01:55:19;3.65;;;2.35;;
70301;SDS011;57706;56.326;43.882;2023-05-07T01:57:46;3.75;;;2.03;;
70301;SDS011;57706;56.326;43.882;2023-05-07T02:00:13;4.03;;;2.47;;
70301;SDS011;57706;56.326;43.882;2023-05-07T02:02:42;3.67;;;2.00;;
70301;SDS011;57706;56.326;43.882;2023-05-07T02:05:17;5.00;;;2.33;;
70301;SDS011;57706;56.326;43.882;2023-05-07T02:07:47;4.53;;;2.15;;
70301;SDS011;57706;56.326;43.882;2023-05-07T02:10:15;3.15;;;2.08;;
70301;SDS011;57706;56.326;43.882;2023-05-07T02:12:41;5.18;;;2.25;;
70301;SDS011;57706;56.326;43.882;2023-05-07T02:15:08;3.55;;;2.38;;
70301;SDS011;57706;56.326;43.882;2023-05-07T02:17:35;4.57;;;2.35;;
70301;SDS011;57706;56.326;43.882;2023-05-07T02:20:03;5.05;;;2.38;;
70301;SDS011;57706;56.326;43.882;2023-05-07T02:22:49;4.65;;;2.30;;
70301;SDS011;57706;56.326;43.882;2023-05-07T02:25:14;5.25;;;2.40;;
70301;SDS011;57706;56.326;43.882;2023-05-07T02:27:40;4.72;;;2.05;;
70301;SDS011;57706;56.326;43.882;2023-05-07T02:30:07;3.28;;;2.28;;
70301;SDS011;57706;56.326;43.882;2023-05-07T02:32:33;3.28;;;2.08;;
70301;SDS011;57706;56.326;43.882;2023-05-07T02:34:59;3.42;;;2.00;;
70301;SDS011;57706;56.326;43.882;2023-05-07T02:37:25;3.70;;;2.08;;
70301;SDS011;57706;56.326;43.882;2023-05-07T02:39:51;4.05;;;2.10;;
70301;SDS011;57706;56.326;43.882;2023-05-07T02:42:17;4.13;;;2.20;;
70301;SDS011;57706;56.326;43.882;2023-05-07T02:44:43;7.15;;;2.53;;
70301;SDS011;57706;56.326;43.882;2023-05-07T02:47:09;9.27;;;2.13;;
70301;SDS011;57706;56.326;43.882;2023-05-07T02:49:36;5.55;;;2.25;;
70301;SDS011;57706;56.326;43.882;2023-05-07T02:52:02;2.65;;;1.85;;
70301;SDS011;57706;56.326;43.882;2023-05-07T02:54:28;4.80;;;2.28;;
70301;SDS011;57706;56.326;43.882;2023-05-07T02:56:54;4.72;;;2.13;;
70301;SDS011;57706;56.326;43.882;2023-05-07T02:59:20;7.53;;;2.10;;
70301;SDS011;57706;56.326;43.882;2023-05-07T03:01:46;4.63;;;2.42;;
70301;SDS011;57706;56.326;43.882;2023-05-07T03:04:12;3.00;;;2.05;;
70301;SDS011;57706;56.326;43.882;2023-05-07T03:06:38;2.78;;;2.03;;
70301;SDS011;57706;56.326;43.882;2023-05-07T03:09:04;5.25;;;2.20;;
70301;SDS011;57706;56.326;43.882;2023-05-07T03:11:30;3.30;;;2.00;;
70301;SDS011;57706;56.326;43.882;2023-05-07T03:13:55;2.65;;;1.83;;
70301;SDS011;57706;56.326;43.882;2023-05-07T03:16:21;5.15;;;2.03;;
70301;SDS011;57706;56.326;43.882;2023-05-07T03:18:47;3.72;;;1.80;;
70301;SDS011;57706;56.326;43.882;2023-05-07T03:21:13;1.90;;;1.65;;
70301;SDS011;57706;56.326;43.882;2023-05-07T03:23:39;2.92;;;1.92;;
70301;SDS011;57706;56.326;43.882;2023-05-07T03:26:05;2.22;;;1.90;;
70301;SDS011;57706;56.326;43.882;2023-05-07T03:28:31;3.08;;;1.60;;
70301;SDS011;57706;56.326;43.882;2023-05-07T03:31:01;3.05;;;2.10;;
70301;SDS011;57706;56.326;43.882;2023-05-07T03:33:28;2.88;;;2.10;;
70301;SDS011;57706;56.326;43.882;2023-05-07T03:35:55;2.63;;;1.92;;
70301;SDS011;57706;56.326;43.882;2023-05-07T03:38:23;2.53;;;1.63;;
70301;SDS011;57706;56.326;43.882;2023-05-07T03:40:49;2.55;;;1.95;;
70301;SDS011;57706;56.326;43.882;2023-05-07T03:43:16;1.95;;;1.55;;
70301;SDS011;57706;56.326;43.882;2023-05-07T03:45:47;5.60;;;1.60;;
70301;SDS011;57706;56.326;43.882;2023-05-07T03:48:18;3.42;;;1.73;;
70301;SDS011;57706;56.326;43.882;2023-05-07T03:50:44;3.75;;;1.63;;
70301;SDS011;57706;56.326;43.882;2023-05-07T03:53:10;3.40;;;1.63;;
70301;SDS011;57706;56.326;43.882;2023-05-07T03:55:39;1.92;;;1.45;;
70301;SDS011;57706;56.326;43.882;2023-05-07T03:58:05;5.13;;;1.63;;
70301;SDS011;57706;56.326;43.882;2023-05-07T04:00:31;2.90;;;1.73;;
70301;SDS011;57706;56.326;43.882;2023-05-07T04:03:06;6.57;;;1.60;;
70301;SDS011;57706;56.326;43.882;2023-05-07T04:05:32;2.45;;;1.55;;
70301;SDS011;57706;56.326;43.882;2023-05-07T04:08:01;6.68;;;1.67;;
70301;SDS011;57706;56.326;43.882;2023-05-07T04:10:35;2.78;;;1.70;;
70301;SDS011;57706;56.326;43.882;2023-05-07T04:13:05;2.97;;;1.65;;
70301;SDS011;57706;56.326;43.882;2023-05-07T04:15:32;3.25;;;1.70;;
70301;SDS011;57706;56.326;43.882;2023-05-07T04:17:58;3.05;;;1.85;;
70301;SDS011;57706;56.326;43.882;2023-05-07T04:20:24;4.53;;;1.90;;
70301;SDS011;57706;56.326;43.882;2023-05-07T04:22:57;4.95;;;1.77;;
70301;SDS011;57706;56.326;43.882;2023-05-07T04:25:24;8.38;;;1.73;;
70301;SDS011;57706;56.326;43.882;2023-05-07T04:27:55;3.13;;;1.95;;
70301;SDS011;57706;56.326;43.882;2023-05-07T04:30:25;3.78;;;2.10;;
70301;SDS011;57706;56.326;43.882;2023-05-07T04:32:51;4.05;;;2.00;;
70301;SDS011;57706;56.326;43.882;2023-05-07T04:35:18;2.00;;;1.67;;
70301;SDS011;57706;56.326;43.882;2023-05-07T04:37:45;3.47;;;1.60;;
70301;SDS011;57706;56.326;43.882;2023-05-07T04:40:12;3.42;;;1.65;;
70301;SDS011;57706;56.326;43.882;2023-05-07T04:42:39;4.63;;;1.70;;
70301;SDS011;57706;56.326;43.882;2023-05-07T04:45:05;4.07;;;2.10;;
70301;SDS011;57706;56.326;43.882;2023-05-07T04:47:34;2.92;;;1.90;;
70301;SDS011;57706;56.326;43.882;2023-05-07T04:50:01;2.58;;;1.40;;
70301;SDS011;57706;56.326;43.882;2023-05-07T04:52:27;2.38;;;1.52;;
70301;SDS011;57706;56.326;43.882;2023-05-07T04:54:53;2.50;;;1.60;;
70301;SDS011;57706;56.326;43.882;2023-05-07T04:57:20;3.00;;;1.55;;
70301;SDS011;57706;56.326;43.882;2023-05-07T04:59:46;3.05;;;1.83;;
70301;SDS011;57706;56.326;43.882;2023-05-07T05:02:14;1.50;;;1.40;;
70301;SDS011;57706;56.326;43.882;2023-05-07T05:04:40;2.05;;;1.35;;
70301;SDS011;57706;56.326;43.882;2023-05-07T05:07:06;1.63;;;1.40;;
70301;SDS011;57706;56.326;43.882;2023-05-07T05:09:32;6.38;;;1.63;;
70301;SDS011;57706;56.326;43.882;2023-05-07T05:11:58;3.05;;;1.75;;
70301;SDS011;57706;56.326;43.882;2023-05-07T05:14:25;2.08;;;1.75;;
70301;SDS011;57706;56.326;43.882;2023-05-07T05:16:52;3.08;;;1.58;;
70301;SDS011;57706;56.326;43.882;2023-05-07T05:19:27;3.20;;;1.40;;
70301;SDS011;57706;56.326;43.882;2023-05-07T05:21:53;2.28;;;1.70;;
70301;SDS011;57706;56.326;43.882;2023-05-07T05:24:19;2.10;;;1.27;;
70301;SDS011;57706;56.326;43.882;2023-05-07T05:26:45;2.97;;;1.98;;
70301;SDS011;57706;56.326;43.882;2023-05-07T05:29:11;6.72;;;3.35;;
70301;SDS011;57706;56.326;43.882;2023-05-07T05:31:39;3.83;;;1.40;;
70301;SDS011;57706;56.326;43.882;2023-05-07T05:34:07;3.05;;;1.50;;
70301;SDS011;57706;56.326;43.882;2023-05-07T05:36:34;1.80;;;1.45;;
70301;SDS011;57706;56.326;43.882;2023-05-07T05:39:00;4.10;;;1.85;;
70301;SDS011;57706;56.326;43.882;2023-05-07T05:41:27;2.95;;;1.40;;
70301;SDS011;57706;56.326;43.882;2023-05-07T05:43:53;4.32;;;1.30;;
70301;SDS011;57706;56.326;43.882;2023-05-07T05:46:19;1.75;;;1.30;;
70301;SDS011;57706;56.326;43.882;2023-05-07T05:48:46;6.28;;;1.70;;
70301;SDS011;57706;56.326;43.882;2023-05-07T05:51:11;2.42;;;1.27;;
70301;SDS011;57706;56.326;43.882;2023-05-07T05:53:37;2.08;;;1.10;;
70301;SDS011;57706;56.326;43.882;2023-05-07T05:56:05;1.83;;;1.33;;
70301;SDS011;57706;56.326;43.882;2023-05-07T05:58:32;1.33;;;1.10;;
70301;SDS011;57706;56.326;43.882;2023-05-07T06:01:01;2.67;;;1.13;;
70301;SDS011;57706;56.326;43.882;2023-05-07T06:03:29;9.85;;;1.30;;
70301;SDS011;57706;56.326;43.882;2023-05-07T06:05:58;1.77;;;1.23;;
70301;SDS011;57706;56.326;43.882;2023-05-07T06:08:25;4.68;;;1.27;;
70301;SDS011;57706;56.326;43.882;2023-05-07T06:10:54;2.40;;;1.27;;
70301;SDS011;57706;56.326;43.882;2023-05-07T06:13:20;5.38;;;1.35;;
70301;SDS011;57706;56.326;43.882;2023-05-07T06:15:46;2.50;;;1.05;;
70301;SDS011;57706;56.326;43.882;2023-05-07T06:18:13;2.45;;;1.05;;
70301;SDS011;57706;56.326;43.882;2023-05-07T06:20:40;2.85;;;1.02;;
70301;SDS011;57706;56.326;43.882;2023-05-07T06:23:10;2.17;;;1.17;;
70301;SDS011;57706;56.326;43.882;2023-05-07T06:25:37;1.88;;;1.20;;
70301;SDS011;57706;56.326;43.882;2023-05-07T06:28:03;1.48;;;0.90;;
70301;SDS011;57706;56.326;43.882;2023-05-07T06:30:31;2.83;;;1.35;;
70301;SDS011;57706;56.326;43.882;2023-05-07T06:32:57;3.42;;;1.27;;
70301;SDS011;57706;56.326;43.882;2023-05-07T06:35:25;0.90;;;0.90;;
70301;SDS011;57706;56.326;43.882;2023-05-07T06:37:52;2.53;;;1.40;;
70301;SDS011;57706;56.326;43.882;2023-05-07T06:40:22;1.52;;;1.40;;
70301;SDS011;57706;56.326;43.882;2023-05-07T06:42:48;5.78;;;1.60;;
70301;SDS011;57706;56.326;43.882;2023-05-07T06:45:34;1.38;;;1.02;;
70301;SDS011;57706;56.326;43.882;2023-05-07T06:48:00;1.77;;;0.88;;
70301;SDS011;57706;56.326;43.882;2023-05-07T06:50:29;3.90;;;0.93;;
70301;SDS011;57706;56.326;43.882;2023-05-07T06:52:57;1.33;;;0.90;;
70301;SDS011;57706;56.326;43.882;2023-05-07T06:55:23;1.55;;;1.13;;
70301;SDS011;57706;56.326;43.882;2023-05-07T06:57:49;1.17;;;1.00;;
70301;SDS011;57706;56.326;43.882;2023-05-07T07:00:15;2.10;;;1.30;;
70301;SDS011;57706;56.326;43.882;2023-05-07T07:02:52;1.20;;;1.10;;
70301;SDS011;57706;56.326;43.882;2023-05-07T07:05:22;2.75;;;1.50;;
70301;SDS011;57706;56.326;43.882;2023-05-07T07:07:48;2.03;;;1.30;;
70301;SDS011;57706;56.326;43.882;2023-05-07T07:10:21;2.15;;;1.10;;
70301;SDS011;57706;56.326;43.882;2023-05-07T07:12:49;1.55;;;1.00;;
70301;SDS011;57706;56.326;43.882;2023-05-07T07:15:15;2.03;;;1.00;;
70301;SDS011;57706;56.326;43.882;2023-05-07T07:17:42;5.68;;;1.02;;
70301;SDS011;57706;56.326;43.882;2023-05-07T07:20:08;3.22;;;0.90;;
70301;SDS011;57706;56.326;43.882;2023-05-07T07:22:34;2.50;;;1.83;;
70301;SDS011;57706;56.326;43.882;2023-05-07T07:25:00;1.75;;;0.90;;
70301;SDS011;57706;56.326;43.882;2023-05-07T07:27:26;1.20;;;1.10;;
70301;SDS011;57706;56.326;43.882;2023-05-07T07:29:52;2.67;;;1.80;;
70301;SDS011;57706;56.326;43.882;2023-05-07T07:32:18;2.83;;;1.13;;
70301;SDS011;57706;56.326;43.882;2023-05-07T07:34:44;2.22;;;0.90;;
70301;SDS011;57706;56.326;43.882;2023-05-07T07:37:11;2.28;;;0.98;;
70301;SDS011;57706;56.326;43.882;2023-05-07T07:39:37;1.50;;;1.40;;
70301;SDS011;57706;56.326;43.882;2023-05-07T07:42:04;0.98;;;0.90;;
70301;SDS011;57706;56.326;43.882;2023-05-07T07:44:31;1.65;;;0.90;;
70301;SDS011;57706;56.326;43.882;2023-05-07T07:49:27;1.63;;;1.00;;
70301;SDS011;57706;56.326;43.882;2023-05-07T07:51:55;1.52;;;1.13;;
70301;SDS011;57706;56.326;43.882;2023-05-07T07:54:24;1.50;;;1.20;;
70301;SDS011;57706;56.326;43.882;2023-05-07T07:56:50;6.43;;;1.67;;
70301;SDS011;57706;56.326;43.882;2023-05-07T07:59:16;1.10;;;1.00;;
70301;SDS011;57706;56.326;43.882;2023-05-07T08:01:45;9.02;;;1.42;;
70301;SDS011;57706;56.326;43.882;2023-05-07T08:04:11;3.08;;;1.30;;
70301;SDS011;57706;56.326;43.882;2023-05-07T08:06:40;4.68;;;1.48;;
70301;SDS011;57706;56.326;43.882;2023-05-07T08:09:07;1.42;;;1.20;;
70301;SDS011;57706;56.326;43.882;2023-05-07T08:11:33;1.77;;;1.10;;
70301;SDS011;57706;56.326;43.882;2023-05-07T08:14:00;3.75;;;1.30;;
70301;SDS011;57706;56.326;43.882;2023-05-07T08:16:26;1.13;;;1.00;;
70301;SDS011;57706;56.326;43.882;2023-05-07T08:18:52;3.17;;;1.17;;
70301;SDS011;57706;56.326;43.882;2023-05-07T08:21:18;3.03;;;2.15;;
70301;SDS011;57706;56.326;43.882;2023-05-07T08:23:45;1.90;;;1.20;;
70301;SDS011;57706;56.326;43.882;2023-05-07T08:26:11;3.47;;;2.15;;
70301;SDS011;57706;56.326;43.882;2023-05-07T08:28:37;2.65;;;1.90;;
70301;SDS011;57706;56.326;43.882;2023-05-07T08:31:03;1.90;;;1.42;;
70301;SDS011;57706;56.326;43.882;2023-05-07T08:33:33;5.43;;;2.20;;
70301;SDS011;57706;56.326;43.882;2023-05-07T08:35:59;2.15;;;1.13;;
70301;SDS011;57706;56.326;43.882;2023-05-07T08:38:26;1.83;;;1.00;;
70301;SDS011;57706;56.326;43.882;2023-05-07T08:40:52;2.03;;;1.25;;
70301;SDS011;57706;56.326;43.882;2023-05-07T08:43:19;4.55;;;2.33;;
70301;SDS011;57706;56.326;43.882;2023-05-07T08:45:47;4.35;;;2.22;;
70301;SDS011;57706;56.326;43.882;2023-05-07T08:48:19;3.95;;;1.40;;
70301;SDS011;57706;56.326;43.882;2023-05-07T08:50:57;1.42;;;1.27;;
70301;SDS011;57706;56.326;43.882;2023-05-07T08:53:24;4.90;;;1.30;;
70301;SDS011;57706;56.326;43.882;2023-05-07T08:55:51;1.65;;;1.38;;
70301;SDS011;57706;56.326;43.882;2023-05-07T08:58:19;3.10;;;2.28;;
70301;SDS011;57706;56.326;43.882;2023-05-07T09:00:44;5.28;;;1.30;;
70301;SDS011;57706;56.326;43.882;2023-05-07T09:03:12;1.17;;;1.08;;
70301;SDS011;57706;56.326;43.882;2023-05-07T09:05:41;2.17;;;1.00;;
70301;SDS011;57706;56.326;43.882;2023-05-07T09:08:14;1.58;;;1.23;;
70301;SDS011;57706;56.326;43.882;2023-05-07T09:10:40;1.33;;;1.10;;
70301;SDS011;57706;56.326;43.882;2023-05-07T09:13:06;0.80;;;0.80;;
70301;SDS011;57706;56.326;43.882;2023-05-07T09:15:32;1.98;;;0.90;;
70301;SDS011;57706;56.326;43.882;2023-05-07T09:17:59;6.60;;;1.20;;
70301;SDS011;57706;56.326;43.882;2023-05-07T09:20:27;4.07;;;1.20;;
70301;SDS011;57706;56.326;43.882;2023-05-07T09:22:56;1.35;;;1.15;;
70301;SDS011;57706;56.326;43.882;2023-05-07T09:25:33;4.07;;;1.55;;
70301;SDS011;57706;56.326;43.882;2023-05-07T09:28:05;3.25;;;1.30;;
70301;SDS011;57706;56.326;43.882;2023-05-07T09:30:33;1.30;;;1.20;;
70301;SDS011;57706;56.326;43.882;2023-05-07T09:33:03;1.23;;;1.00;;
70301;SDS011;57706;56.326;43.882;2023-05-07T09:35:30;4.28;;;1.30;;
70301;SDS011;57706;56.326;43.882;2023-05-07T09:38:01;3.58;;;1.30;;
70301;SDS011;57706;56.326;43.882;2023-05-07T09:40:29;1.20;;;1.08;;
70301;SDS011;57706;56.326;43.882;2023-05-07T09:43:10;3.15;;;1.00;;
70301;SDS011;57706;56.326;43.882;2023-05-07T09:45:40;2.13;;;1.50;;
70301;SDS011;57706;56.326;43.882;2023-05-07T09:48:07;1.48;;;1.38;;
70301;SDS011;57706;56.326;43.882;2023-05-07T09:50:40;1.90;;;1.15;;
70301;SDS011;57706;56.326;43.882;2023-05-07T09:53:16;4.32;;;1.48;;
70301;SDS011;57706;56.326;43.882;2023-05-07T09:55:43;2.78;;;1.50;;
70301;SDS011;57706;56.326;43.882;2023-05-07T09:58:11;6.82;;;1.60;;
70301;SDS011;57706;56.326;43.882;2023-05-07T10:00:40;3.47;;;1.77;;
70301;SDS011;57706;56.326;43.882;2023-05-07T10:03:11;2.03;;;1.80;;
70301;SDS011;57706;56.326;43.882;2023-05-07T10:06:01;3.03;;;2.70;;
70301;SDS011;57706;56.326;43.882;2023-05-07T10:08:28;2.83;;;2.25;;
70301;SDS011;57706;56.326;43.882;2023-05-07T10:10:59;4.50;;;1.63;;
70301;SDS011;57706;56.326;43.882;2023-05-07T10:13:27;2.97;;;1.38;;
70301;SDS011;57706;56.326;43.882;2023-05-07T10:15:56;3.83;;;1.55;;
70301;SDS011;57706;56.326;43.882;2023-05-07T10:18:25;3.63;;;1.52;;
70301;SDS011;57706;56.326;43.882;2023-05-07T10:24:03;5.28;;;1.80;;
70301;SDS011;57706;56.326;43.882;2023-05-07T10:26:34;3.10;;;1.30;;
70301;SDS011;57706;56.326;43.882;2023-05-07T10:29:03;1.60;;;1.30;;
70301;SDS011;57706;56.326;43.882;2023-05-07T10:33:59;2.15;;;1.58;;
70301;SDS011;57706;56.326;43.882;2023-05-07T10:36:26;2.47;;;2.05;;
70301;SDS011;57706;56.326;43.882;2023-05-07T10:38:53;5.80;;;1.52;;
70301;SDS011;57706;56.326;43.882;2023-05-07T10:41:20;3.55;;;1.60;;
70301;SDS011;57706;56.326;43.882;2023-05-07T10:43:47;4.22;;;2.25;;
70301;SDS011;57706;56.326;43.882;2023-05-07T10:46:21;6.22;;;2.60;;
70301;SDS011;57706;56.326;43.882;2023-05-07T10:57:40;2.25;;;1.60;;
70301;SDS011;57706;56.326;43.882;2023-05-07T11:05:37;4.07;;;1.55;;
70301;SDS011;57706;56.326;43.882;2023-05-07T11:11:50;2.55;;;1.67;;
70301;SDS011;57706;56.326;43.882;2023-05-07T11:14:49;1.75;;;1.50;;
70301;SDS011;57706;56.326;43.882;2023-05-07T11:17:26;3.13;;;2.40;;
70301;SDS011;57706;56.326;43.882;2023-05-07T11:20:01;2.67;;;1.63;;
70301;SDS011;57706;56.326;43.882;2023-05-07T11:22:45;3.33;;;1.27;;
70301;SDS011;57706;56.326;43.882;2023-05-07T11:25:32;1.50;;;1.40;;
70301;SDS011;57706;56.326;43.882;2023-05-07T11:28:15;3.03;;;1.40;;
70301;SDS011;57706;56.326;43.882;2023-05-07T11:31:02;1.63;;;1.52;;
70301;SDS011;57706;56.326;43.882;2023-05-07T11:33:32;2.88;;;1.58;;
70301;SDS011;57706;56.326;43.882;2023-05-07T11:36:02;4.20;;;1.90;;
70301;SDS011;57706;56.326;43.882;2023-05-07T11:38:34;2.40;;;1.73;;
70301;SDS011;57706;56.326;43.882;2023-05-07T11:41:01;1.67;;;1.50;;
70301;SDS011;57706;56.326;43.882;2023-05-07T11:43:30;5.28;;;1.80;;
70301;SDS011;57706;56.326;43.882;2023-05-07T11:46:10;4.13;;;1.58;;
70301;SDS011;57706;56.326;43.882;2023-05-07T11:48:37;3.13;;;1.65;;
70301;SDS011;57706;56.326;43.882;2023-05-07T11:51:05;3.10;;;1.55;;
70301;SDS011;57706;56.326;43.882;2023-05-07T11:53:35;10.75;;;1.58;;
70301;SDS011;57706;56.326;43.882;2023-05-07T11:56:09;2.83;;;1.63;;
70301;SDS011;57706;56.326;43.882;2023-05-07T11:58:36;2.30;;;1.40;;
70301;SDS011;57706;56.326;43.882;2023-05-07T12:01:03;3.05;;;2.10;;
70301;SDS011;57706;56.326;43.882;2023-05-07T12:03:29;3.47;;;2.03;;
70301;SDS011;57706;56.326;43.882;2023-05-07T12:05:55;2.50;;;1.58;;
70301;SDS011;57706;56.326;43.882;2023-05-07T12:08:21;3.75;;;1.73;;
70301;SDS011;57706;56.326;43.882;2023-05-07T12:10:50;2.05;;;1.60;;
70301;SDS011;57706;56.326;43.882;2023-05-07T12:13:21;3.22;;;2.20;;
70301;SDS011;57706;56.326;43.882;2023-05-07T12:15:52;5.22;;;2.30;;
70301;SDS011;57706;56.326;43.882;2023-05-07T12:18:18;5.13;;;2.38;;
70301;SDS011;57706;56.326;43.882;2023-05-07T12:20:46;3.60;;;1.90;;
70301;SDS011;57706;56.326;43.882;2023-05-07T12:23:12;4.28;;;2.10;;
70301;SDS011;57706;56.326;43.882;2023-05-07T12:25:38;4.13;;;1.90;;
70301;SDS011;57706;56.326;43.882;2023-05-07T12:28:07;5.97;;;2.00;;
70301;SDS011;57706;56.326;43.882;2023-05-07T12:30:37;1.90;;;1.60;;
70301;SDS011;57706;56.326;43.882;2023-05-07T12:33:04;3.42;;;1.60;;
70301;SDS011;57706;56.326;43.882;2023-05-07T12:35:30;3.20;;;1.33;;
70301;SDS011;57706;56.326;43.882;2023-05-07T12:37:58;2.00;;;1.38;;
70301;SDS011;57706;56.326;43.882;2023-05-07T12:43:04;3.35;;;2.10;;
70301;SDS011;57706;56.326;43.882;2023-05-07T12:45:30;2.38;;;1.70;;
70301;SDS011;57706;56.326;43.882;2023-05-07T12:47:57;6.72;;;1.50;;
70301;SDS011;57706;56.326;43.882;2023-05-07T12:52:56;1.92;;;1.42;;
70301;SDS011;57706;56.326;43.882;2023-05-07T12:55:22;2.35;;;1.40;;
70301;SDS011;57706;56.326;43.882;2023-05-07T12:57:48;2.40;;;1.30;;
70301;SDS011;57706;56.326;43.882;2023-05-07T13:00:17;3.22;;;1.83;;
70301;SDS011;57706;56.326;43.882;2023-05-07T13:02:43;3.00;;;1.70;;
70301;SDS011;57706;56.326;43.882;2023-05-07T13:05:10;3.25;;;1.70;;
70301;SDS011;57706;56.326;43.882;2023-05-07T13:07:36;2.58;;;1.50;;
70301;SDS011;57706;56.326;43.882;2023-05-07T13:10:03;7.20;;;1.98;;
70301;SDS011;57706;56.326;43.882;2023-05-07T13:12:31;2.00;;;1.45;;
70301;SDS011;57706;56.326;43.882;2023-05-07T13:14:57;2.15;;;1.35;;
70301;SDS011;57706;56.326;43.882;2023-05-07T13:17:23;4.00;;;1.63;;
70301;SDS011;57706;56.326;43.882;2023-05-07T13:19:49;3.95;;;1.20;;
70301;SDS011;57706;56.326;43.882;2023-05-07T13:22:15;2.20;;;1.30;;
70301;SDS011;57706;56.326;43.882;2023-05-07T13:24:41;3.65;;;1.40;;
70301;SDS011;57706;56.326;43.882;2023-05-07T13:27:09;1.40;;;1.30;;
70301;SDS011;57706;56.326;43.882;2023-05-07T13:29:34;2.05;;;1.25;;
70301;SDS011;57706;56.326;43.882;2023-05-07T13:32:00;7.65;;;1.23;;
70301;SDS011;57706;56.326;43.882;2023-05-07T13:34:27;1.45;;;1.35;;
70301;SDS011;57706;56.326;43.882;2023-05-07T13:36:53;5.97;;;1.38;;
70301;SDS011;57706;56.326;43.882;2023-05-07T13:39:20;5.75;;;1.58;;
70301;SDS011;57706;56.326;43.882;2023-05-07T13:41:46;4.30;;;1.17;;
70301;SDS011;57706;56.326;43.882;2023-05-07T13:44:12;5.32;;;1.65;;
70301;SDS011;57706;56.326;43.882;2023-05-07T13:46:37;2.30;;;1.63;;
70301;SDS011;57706;56.326;43.882;2023-05-07T13:49:03;2.25;;;1.40;;
70301;SDS011;57706;56.326;43.882;2023-05-07T13:51:29;1.65;;;1.10;;
70301;SDS011;57706;56.326;43.882;2023-05-07T13:53:55;2.85;;;1.60;;
70301;SDS011;57706;56.326;43.882;2023-05-07T13:56:21;2.75;;;1.20;;
70301;SDS011;57706;56.326;43.882;2023-05-07T13:58:47;3.80;;;1.30;;
70301;SDS011;57706;56.326;43.882;2023-05-07T14:01:12;2.63;;;1.27;;
70301;SDS011;57706;56.326;43.882;2023-05-07T14:03:38;1.70;;;0.90;;
70301;SDS011;57706;56.326;43.882;2023-05-07T14:06:05;1.90;;;1.20;;
70301;SDS011;57706;56.326;43.882;2023-05-07T14:08:31;2.30;;;1.30;;
70301;SDS011;57706;56.326;43.882;2023-05-07T14:10:57;1.77;;;1.20;;
70301;SDS011;57706;56.326;43.882;2023-05-07T14:13:23;2.05;;;1.30;;
70301;SDS011;57706;56.326;43.882;2023-05-07T14:15:49;1.92;;;1.20;;
70301;SDS011;57706;56.326;43.882;2023-05-07T14:18:15;4.15;;;1.30;;
70301;SDS011;57706;56.326;43.882;2023-05-07T14:20:41;5.00;;;1.88;;
70301;SDS011;57706;56.326;43.882;2023-05-07T14:23:12;1.92;;;1.33;;
70301;SDS011;57706;56.326;43.882;2023-05-07T14:25:37;1.52;;;1.30;;
70301;SDS011;57706;56.326;43.882;2023-05-07T14:28:03;1.83;;;1.55;;
70301;SDS011;57706;56.326;43.882;2023-05-07T14:30:29;2.85;;;1.30;;
70301;SDS011;57706;56.326;43.882;2023-05-07T14:32:56;4.65;;;1.27;;
70301;SDS011;57706;56.326;43.882;2023-05-07T14:35:22;3.90;;;1.55;;
70301;SDS011;57706;56.326;43.882;2023-05-07T14:37:48;2.28;;;1.52;;
70301;SDS011;57706;56.326;43.882;2023-05-07T14:40:14;2.92;;;1.40;;
70301;SDS011;57706;56.326;43.882;2023-05-07T14:42:40;1.92;;;1.55;;
70301;SDS011;57706;56.326;43.882;2023-05-07T14:45:06;1.70;;;1.60;;
70301;SDS011;57706;56.326;43.882;2023-05-07T14:47:33;1.42;;;1.20;;
70301;SDS011;57706;56.326;43.882;2023-05-07T14:49:58;1.83;;;1.33;;
70301;SDS011;57706;56.326;43.882;2023-05-07T14:52:26;2.90;;;1.38;;
70301;SDS011;57706;56.326;43.882;2023-05-07T14:54:52;4.82;;;1.55;;
70301;SDS011;57706;56.326;43.882;2023-05-07T14:57:18;2.60;;;1.40;;
70301;SDS011;57706;56.326;43.882;2023-05-07T14:59:44;5.63;;;1.30;;
70301;SDS011;57706;56.326;43.882;2023-05-07T15:02:11;2.25;;;1.10;;
70301;SDS011;57706;56.326;43.882;2023-05-07T15:04:37;3.97;;;1.13;;
70301;SDS011;57706;56.326;43.882;2023-05-07T15:07:05;3.45;;;1.48;;